sensor_id;sensor_type;location;lat;lon;timestamp;temperature;humidity
24326;DHT22;12448;45.532;5.290;2023-07-28T00:01:16;24.20;69.20
24326;DHT22;12448;45.532;5.290;2023-07-28T00:03:42;24.20;69.40
24326;DHT22;12448;45.532;5.290;2023-07-28T00:06:08;24.20;69.50
24326;DHT22;12448;45.532;5.290;2023-07-28T00:08:33;23.70;69.40
24326;DHT22;12448;45.532;5.290;2023-07-28T00:10:59;24.10;70.00
24326;DHT22;12448;45.532;5.290;2023-07-28T00:13:24;24.10;70.00
24326;DHT22;12448;45.532;5.290;2023-07-28T00:15:50;24.20;70.50
24326;DHT22;12448;45.532;5.290;2023-07-28T00:18:15;24.10;70.50
24326;DHT22;12448;45.532;5.290;2023-07-28T00:20:41;24.20;70.60
24326;DHT22;12448;45.532;5.290;2023-07-28T00:23:07;24.20;70.60
24326;DHT22;12448;45.532;5.290;2023-07-28T00:25:32;24.10;70.70
24326;DHT22;12448;45.532;5.290;2023-07-28T00:27:58;24.10;70.70
24326;DHT22;12448;45.532;5.290;2023-07-28T00:30:23;24.10;70.80
24326;DHT22;12448;45.532;5.290;2023-07-28T00:32:49;24.10;71.10
24326;DHT22;12448;45.532;5.290;2023-07-28T00:35:15;24.10;71.40
24326;DHT22;12448;45.532;5.290;2023-07-28T00:37:41;24.10;71.60
24326;DHT22;12448;45.532;5.290;2023-07-28T00:40:07;24.10;71.70
24326;DHT22;12448;45.532;5.290;2023-07-28T00:42:33;24.10;72.00
24326;DHT22;12448;45.532;5.290;2023-07-28T00:44:58;24.10;73.10
24326;DHT22;12448;45.532;5.290;2023-07-28T00:47:24;24.10;72.40
24326;DHT22;12448;45.532;5.290;2023-07-28T00:49:50;24.00;72.60
24326;DHT22;12448;45.532;5.290;2023-07-28T00:52:15;24.00;72.90
24326;DHT22;12448;45.532;5.290;2023-07-28T00:54:41;24.00;73.20
24326;DHT22;12448;45.532;5.290;2023-07-28T00:57:07;24.00;73.40
24326;DHT22;12448;45.532;5.290;2023-07-28T00:59:33;24.00;73.70
24326;DHT22;12448;45.532;5.290;2023-07-28T01:01:58;24.00;73.80
24326;DHT22;12448;45.532;5.290;2023-07-28T01:04:24;24.00;74.00
24326;DHT22;12448;45.532;5.290;2023-07-28T01:09:21;24.00;74.40
24326;DHT22;12448;45.532;5.290;2023-07-28T01:14:19;23.90;74.60
24326;DHT22;12448;45.532;5.290;2023-07-28T01:16:45;23.90;74.70
24326;DHT22;12448;45.532;5.290;2023-07-28T01:19:12;23.90;74.90
24326;DHT22;12448;45.532;5.290;2023-07-28T01:21:39;23.90;75.00
24326;DHT22;12448;45.532;5.290;2023-07-28T01:24:14;23.90;75.10
24326;DHT22;12448;45.532;5.290;2023-07-28T01:26:41;23.90;75.10
24326;DHT22;12448;45.532;5.290;2023-07-28T01:29:07;23.90;75.30
24326;DHT22;12448;45.532;5.290;2023-07-28T01:31:33;23.90;75.50
24326;DHT22;12448;45.532;5.290;2023-07-28T01:33:59;23.90;75.70
24326;DHT22;12448;45.532;5.290;2023-07-28T01:36:24;23.90;75.90
24326;DHT22;12448;45.532;5.290;2023-07-28T01:38:50;23.80;76.00
24326;DHT22;12448;45.532;5.290;2023-07-28T01:41:15;23.80;76.20
24326;DHT22;12448;45.532;5.290;2023-07-28T01:43:41;23.90;76.60
24326;DHT22;12448;45.532;5.290;2023-07-28T01:46:09;23.80;76.70
24326;DHT22;12448;45.532;5.290;2023-07-28T01:48:35;23.80;77.10
24326;DHT22;12448;45.532;5.290;2023-07-28T01:51:01;23.80;77.20
24326;DHT22;12448;45.532;5.290;2023-07-28T01:53:26;23.80;77.70
24326;DHT22;12448;45.532;5.290;2023-07-28T01:55:52;23.80;78.00
24326;DHT22;12448;45.532;5.290;2023-07-28T01:58:17;23.80;78.00
24326;DHT22;12448;45.532;5.290;2023-07-28T02:00:43;23.80;78.50
24326;DHT22;12448;45.532;5.290;2023-07-28T02:03:08;23.70;78.60
24326;DHT22;12448;45.532;5.290;2023-07-28T02:05:34;23.70;78.90
24326;DHT22;12448;45.532;5.290;2023-07-28T02:08:00;23.70;79.20
24326;DHT22;12448;45.532;5.290;2023-07-28T02:10:28;23.70;79.40
24326;DHT22;12448;45.532;5.290;2023-07-28T02:12:54;23.80;79.70
24326;DHT22;12448;45.532;5.290;2023-07-28T02:15:20;23.70;80.00
24326;DHT22;12448;45.532;5.290;2023-07-28T02:17:45;23.70;80.20
24326;DHT22;12448;45.532;5.290;2023-07-28T02:20:11;23.70;80.70
24326;DHT22;12448;45.532;5.290;2023-07-28T02:22:39;23.60;80.80
24326;DHT22;12448;45.532;5.290;2023-07-28T02:25:05;23.60;81.10
24326;DHT22;12448;45.532;5.290;2023-07-28T02:27:31;23.70;81.60
24326;DHT22;12448;45.532;5.290;2023-07-28T02:29:56;23.60;81.70
24326;DHT22;12448;45.532;5.290;2023-07-28T02:32:22;23.60;82.00
24326;DHT22;12448;45.532;5.290;2023-07-28T02:34:48;23.60;82.40
24326;DHT22;12448;45.532;5.290;2023-07-28T02:37:14;23.60;82.60
24326;DHT22;12448;45.532;5.290;2023-07-28T02:39:40;23.60;83.00
24326;DHT22;12448;45.532;5.290;2023-07-28T02:42:06;23.60;83.50
24326;DHT22;12448;45.532;5.290;2023-07-28T02:44:32;23.50;83.70
24326;DHT22;12448;45.532;5.290;2023-07-28T02:46:57;23.50;84.00
24326;DHT22;12448;45.532;5.290;2023-07-28T02:49:23;23.50;84.70
24326;DHT22;12448;45.532;5.290;2023-07-28T02:51:48;23.50;85.00
24326;DHT22;12448;45.532;5.290;2023-07-28T02:54:14;23.50;85.30
24326;DHT22;12448;45.532;5.290;2023-07-28T02:56:40;23.40;85.60
24326;DHT22;12448;45.532;5.290;2023-07-28T02:59:05;23.40;86.30
24326;DHT22;12448;45.532;5.290;2023-07-28T03:01:31;23.30;87.00
24326;DHT22;12448;45.532;5.290;2023-07-28T03:04:03;23.30;86.80
24326;DHT22;12448;45.532;5.290;2023-07-28T03:06:29;23.30;87.10
24326;DHT22;12448;45.532;5.290;2023-07-28T03:08:55;23.30;87.20
24326;DHT22;12448;45.532;5.290;2023-07-28T03:11:20;23.30;87.40
24326;DHT22;12448;45.532;5.290;2023-07-28T03:13:46;23.30;87.60
24326;DHT22;12448;45.532;5.290;2023-07-28T03:16:12;23.30;88.10
24326;DHT22;12448;45.532;5.290;2023-07-28T03:18:37;23.30;87.90
24326;DHT22;12448;45.532;5.290;2023-07-28T03:21:03;23.30;88.10
24326;DHT22;12448;45.532;5.290;2023-07-28T03:23:29;23.30;88.10
24326;DHT22;12448;45.532;5.290;2023-07-28T03:25:54;23.40;88.00
24326;DHT22;12448;45.532;5.290;2023-07-28T03:28:20;23.40;88.20
24326;DHT22;12448;45.532;5.290;2023-07-28T03:30:46;23.40;88.30
24326;DHT22;12448;45.532;5.290;2023-07-28T03:33:11;23.30;88.60
24326;DHT22;12448;45.532;5.290;2023-07-28T03:35:37;23.30;88.80
24326;DHT22;12448;45.532;5.290;2023-07-28T03:38:02;23.30;88.70
24326;DHT22;12448;45.532;5.290;2023-07-28T03:40:28;23.30;88.70
24326;DHT22;12448;45.532;5.290;2023-07-28T03:42:54;23.30;88.90
24326;DHT22;12448;45.532;5.290;2023-07-28T03:45:20;23.30;88.90
24326;DHT22;12448;45.532;5.290;2023-07-28T03:47:45;23.30;89.10
24326;DHT22;12448;45.532;5.290;2023-07-28T03:50:11;23.30;89.10
24326;DHT22;12448;45.532;5.290;2023-07-28T03:52:37;23.30;89.20
24326;DHT22;12448;45.532;5.290;2023-07-28T03:55:03;23.30;89.20
24326;DHT22;12448;45.532;5.290;2023-07-28T03:57:28;23.30;89.20
24326;DHT22;12448;45.532;5.290;2023-07-28T03:59:54;23.30;89.10
24326;DHT22;12448;45.532;5.290;2023-07-28T04:02:19;23.30;89.20
24326;DHT22;12448;45.532;5.290;2023-07-28T04:04:45;23.30;89.20
24326;DHT22;12448;45.532;5.290;2023-07-28T04:07:11;23.30;89.20
24326;DHT22;12448;45.532;5.290;2023-07-28T04:09:36;23.30;89.30
24326;DHT22;12448;45.532;5.290;2023-07-28T04:12:02;23.30;89.20
24326;DHT22;12448;45.532;5.290;2023-07-28T04:14:27;23.30;89.40
24326;DHT22;12448;45.532;5.290;2023-07-28T04:16:53;23.30;89.30
24326;DHT22;12448;45.532;5.290;2023-07-28T04:19:19;23.30;89.20
24326;DHT22;12448;45.532;5.290;2023-07-28T04:21:44;23.30;89.20
24326;DHT22;12448;45.532;5.290;2023-07-28T04:24:10;23.30;89.30
24326;DHT22;12448;45.532;5.290;2023-07-28T04:26:36;23.30;89.20
24326;DHT22;12448;45.532;5.290;2023-07-28T04:29:02;23.30;89.20
24326;DHT22;12448;45.532;5.290;2023-07-28T04:31:28;23.30;89.20
24326;DHT22;12448;45.532;5.290;2023-07-28T04:33:53;23.30;89.20
24326;DHT22;12448;45.532;5.290;2023-07-28T04:36:19;23.40;89.20
24326;DHT22;12448;45.532;5.290;2023-07-28T04:38:45;23.40;89.10
24326;DHT22;12448;45.532;5.290;2023-07-28T04:41:10;23.40;89.10
24326;DHT22;12448;45.532;5.290;2023-07-28T04:43:36;23.40;89.20
24326;DHT22;12448;45.532;5.290;2023-07-28T04:46:01;23.30;89.10
24326;DHT22;12448;45.532;5.290;2023-07-28T04:48:27;23.30;89.20
24326;DHT22;12448;45.532;5.290;2023-07-28T04:50:53;23.30;89.20
24326;DHT22;12448;45.532;5.290;2023-07-28T04:53:19;23.30;89.20
24326;DHT22;12448;45.532;5.290;2023-07-28T04:55:45;23.30;89.20
24326;DHT22;12448;45.532;5.290;2023-07-28T04:58:11;23.30;89.30
24326;DHT22;12448;45.532;5.290;2023-07-28T05:00:36;23.30;89.30
24326;DHT22;12448;45.532;5.290;2023-07-28T05:03:02;23.30;89.40
24326;DHT22;12448;45.532;5.290;2023-07-28T05:05:29;23.30;89.40
24326;DHT22;12448;45.532;5.290;2023-07-28T05:07:55;23.30;89.50
24326;DHT22;12448;45.532;5.290;2023-07-28T05:10:20;23.30;89.70
24326;DHT22;12448;45.532;5.290;2023-07-28T05:12:46;23.30;89.70
24326;DHT22;12448;45.532;5.290;2023-07-28T05:15:14;23.30;89.80
24326;DHT22;12448;45.532;5.290;2023-07-28T05:17:40;23.30;89.80
24326;DHT22;12448;45.532;5.290;2023-07-28T05:20:06;23.30;89.90
24326;DHT22;12448;45.532;5.290;2023-07-28T05:22:32;23.40;89.90
24326;DHT22;12448;45.532;5.290;2023-07-28T05:24:57;23.30;89.90
24326;DHT22;12448;45.532;5.290;2023-07-28T05:27:23;23.30;89.90
24326;DHT22;12448;45.532;5.290;2023-07-28T05:29:49;23.30;89.90
24326;DHT22;12448;45.532;5.290;2023-07-28T05:32:14;23.30;90.00
24326;DHT22;12448;45.532;5.290;2023-07-28T05:34:43;23.30;90.00
24326;DHT22;12448;45.532;5.290;2023-07-28T05:37:09;23.30;90.00
24326;DHT22;12448;45.532;5.290;2023-07-28T05:39:35;23.30;90.00
24326;DHT22;12448;45.532;5.290;2023-07-28T05:42:01;23.30;90.00
24326;DHT22;12448;45.532;5.290;2023-07-28T05:44:26;23.20;90.00
24326;DHT22;12448;45.532;5.290;2023-07-28T05:46:55;23.30;90.00
24326;DHT22;12448;45.532;5.290;2023-07-28T05:49:21;23.30;89.90
24326;DHT22;12448;45.532;5.290;2023-07-28T05:51:46;23.30;89.90
24326;DHT22;12448;45.532;5.290;2023-07-28T05:54:12;23.30;89.80
24326;DHT22;12448;45.532;5.290;2023-07-28T05:56:42;23.30;89.70
24326;DHT22;12448;45.532;5.290;2023-07-28T05:59:07;23.30;90.10
24326;DHT22;12448;45.532;5.290;2023-07-28T06:01:33;23.30;89.40
24326;DHT22;12448;45.532;5.290;2023-07-28T06:03:59;23.30;89.30
24326;DHT22;12448;45.532;5.290;2023-07-28T06:06:25;23.30;89.20
24326;DHT22;12448;45.532;5.290;2023-07-28T06:08:52;23.30;89.20
24326;DHT22;12448;45.532;5.290;2023-07-28T06:11:18;23.40;89.20
24326;DHT22;12448;45.532;5.290;2023-07-28T06:13:44;23.40;89.10
24326;DHT22;12448;45.532;5.290;2023-07-28T06:16:11;23.40;89.80
24326;DHT22;12448;45.532;5.290;2023-07-28T06:18:37;23.40;88.80
24326;DHT22;12448;45.532;5.290;2023-07-28T06:21:03;23.40;88.80
24326;DHT22;12448;45.532;5.290;2023-07-28T06:23:29;23.50;88.70
24326;DHT22;12448;45.532;5.290;2023-07-28T06:25:54;23.50;88.50
24326;DHT22;12448;45.532;5.290;2023-07-28T06:28:20;23.50;88.40
24326;DHT22;12448;45.532;5.290;2023-07-28T06:30:46;23.60;88.30
24326;DHT22;12448;45.532;5.290;2023-07-28T06:33:12;23.60;88.00
24326;DHT22;12448;45.532;5.290;2023-07-28T06:35:37;23.60;87.60
24326;DHT22;12448;45.532;5.290;2023-07-28T06:38:03;23.60;87.50
24326;DHT22;12448;45.532;5.290;2023-07-28T06:40:29;23.70;87.40
24326;DHT22;12448;45.532;5.290;2023-07-28T06:42:55;23.80;87.30
24326;DHT22;12448;45.532;5.290;2023-07-28T06:45:21;23.70;86.90
24326;DHT22;12448;45.532;5.290;2023-07-28T06:47:47;23.80;87.00
24326;DHT22;12448;45.532;5.290;2023-07-28T06:50:12;23.80;86.80
24326;DHT22;12448;45.532;5.290;2023-07-28T06:52:38;23.80;86.60
24326;DHT22;12448;45.532;5.290;2023-07-28T06:55:04;23.90;86.70
24326;DHT22;12448;45.532;5.290;2023-07-28T06:57:30;23.90;86.50
24326;DHT22;12448;45.532;5.290;2023-07-28T06:59:57;23.90;86.40
24326;DHT22;12448;45.532;5.290;2023-07-28T07:02:22;23.90;86.10
24326;DHT22;12448;45.532;5.290;2023-07-28T07:04:48;24.00;86.10
24326;DHT22;12448;45.532;5.290;2023-07-28T07:07:14;24.00;86.00
24326;DHT22;12448;45.532;5.290;2023-07-28T07:09:40;24.10;86.00
24326;DHT22;12448;45.532;5.290;2023-07-28T07:12:10;24.00;85.90
24326;DHT22;12448;45.532;5.290;2023-07-28T07:14:36;24.10;85.90
24326;DHT22;12448;45.532;5.290;2023-07-28T07:17:01;24.10;85.90
24326;DHT22;12448;45.532;5.290;2023-07-28T07:19:28;24.10;85.80
24326;DHT22;12448;45.532;5.290;2023-07-28T07:21:54;24.20;85.90
24326;DHT22;12448;45.532;5.290;2023-07-28T07:24:20;24.20;85.90
24326;DHT22;12448;45.532;5.290;2023-07-28T07:26:46;24.20;85.40
24326;DHT22;12448;45.532;5.290;2023-07-28T07:29:12;24.20;85.90
24326;DHT22;12448;45.532;5.290;2023-07-28T07:31:38;24.30;85.00
24326;DHT22;12448;45.532;5.290;2023-07-28T07:34:03;24.40;85.00
24326;DHT22;12448;45.532;5.290;2023-07-28T07:36:30;24.40;84.80
24326;DHT22;12448;45.532;5.290;2023-07-28T07:38:55;24.40;85.20
24326;DHT22;12448;45.532;5.290;2023-07-28T07:41:22;24.40;84.20
24326;DHT22;12448;45.532;5.290;2023-07-28T07:43:48;24.50;84.10
24326;DHT22;12448;45.532;5.290;2023-07-28T07:46:15;24.30;83.80
24326;DHT22;12448;45.532;5.290;2023-07-28T07:48:41;24.50;83.80
24326;DHT22;12448;45.532;5.290;2023-07-28T07:51:08;24.60;84.00
24326;DHT22;12448;45.532;5.290;2023-07-28T07:53:34;24.60;83.70
24326;DHT22;12448;45.532;5.290;2023-07-28T07:56:02;24.60;84.40
24326;DHT22;12448;45.532;5.290;2023-07-28T07:58:28;24.70;83.50
24326;DHT22;12448;45.532;5.290;2023-07-28T08:00:55;24.80;83.30
24326;DHT22;12448;45.532;5.290;2023-07-28T08:03:20;24.80;83.20
24326;DHT22;12448;45.532;5.290;2023-07-28T08:05:46;24.80;83.20
24326;DHT22;12448;45.532;5.290;2023-07-28T08:08:12;24.90;82.80
24326;DHT22;12448;45.532;5.290;2023-07-28T08:10:40;24.90;82.70
24326;DHT22;12448;45.532;5.290;2023-07-28T08:13:06;25.00;82.80
24326;DHT22;12448;45.532;5.290;2023-07-28T08:15:31;25.10;83.00
24326;DHT22;12448;45.532;5.290;2023-07-28T08:17:57;25.20;83.00
24326;DHT22;12448;45.532;5.290;2023-07-28T08:20:22;25.30;82.80
24326;DHT22;12448;45.532;5.290;2023-07-28T08:22:48;25.30;82.20
24326;DHT22;12448;45.532;5.290;2023-07-28T08:25:14;25.40;81.60
24326;DHT22;12448;45.532;5.290;2023-07-28T08:27:39;25.40;81.40
24326;DHT22;12448;45.532;5.290;2023-07-28T08:30:05;25.50;80.80
24326;DHT22;12448;45.532;5.290;2023-07-28T08:32:31;25.50;80.70
24326;DHT22;12448;45.532;5.290;2023-07-28T08:34:57;25.50;80.80
24326;DHT22;12448;45.532;5.290;2023-07-28T08:37:23;25.60;80.20
24326;DHT22;12448;45.532;5.290;2023-07-28T08:39:48;25.70;80.20
24326;DHT22;12448;45.532;5.290;2023-07-28T08:42:14;25.80;79.90
24326;DHT22;12448;45.532;5.290;2023-07-28T08:44:40;25.90;79.50
24326;DHT22;12448;45.532;5.290;2023-07-28T08:47:07;25.80;77.60
24326;DHT22;12448;45.532;5.290;2023-07-28T08:49:32;25.80;78.10
24326;DHT22;12448;45.532;5.290;2023-07-28T08:52:01;25.80;78.10
24326;DHT22;12448;45.532;5.290;2023-07-28T08:54:27;25.80;78.20
24326;DHT22;12448;45.532;5.290;2023-07-28T08:56:53;25.80;78.30
24326;DHT22;12448;45.532;5.290;2023-07-28T08:59:22;25.80;78.70
24326;DHT22;12448;45.532;5.290;2023-07-28T09:01:51;25.90;78.30
24326;DHT22;12448;45.532;5.290;2023-07-28T09:04:17;25.90;78.20
24326;DHT22;12448;45.532;5.290;2023-07-28T09:06:46;26.00;77.90
24326;DHT22;12448;45.532;5.290;2023-07-28T09:09:13;26.00;77.10
24326;DHT22;12448;45.532;5.290;2023-07-28T09:11:49;26.10;77.30
24326;DHT22;12448;45.532;5.290;2023-07-28T09:14:16;26.20;77.00
24326;DHT22;12448;45.532;5.290;2023-07-28T09:16:43;26.20;76.60
24326;DHT22;12448;45.532;5.290;2023-07-28T09:19:09;26.30;76.70
24326;DHT22;12448;45.532;5.290;2023-07-28T09:21:37;26.30;76.40
24326;DHT22;12448;45.532;5.290;2023-07-28T09:24:08;26.30;75.70
24326;DHT22;12448;45.532;5.290;2023-07-28T09:26:40;26.30;74.60
24326;DHT22;12448;45.532;5.290;2023-07-28T09:29:21;26.30;74.90
24326;DHT22;12448;45.532;5.290;2023-07-28T09:31:49;26.20;75.50
24326;DHT22;12448;45.532;5.290;2023-07-28T09:34:26;26.20;75.50
24326;DHT22;12448;45.532;5.290;2023-07-28T09:36:55;26.40;75.10
24326;DHT22;12448;45.532;5.290;2023-07-28T09:39:21;26.50;74.70
24326;DHT22;12448;45.532;5.290;2023-07-28T09:41:47;26.60;74.40
24326;DHT22;12448;45.532;5.290;2023-07-28T09:44:13;26.60;75.00
24326;DHT22;12448;45.532;5.290;2023-07-28T09:46:55;26.70;73.60
24326;DHT22;12448;45.532;5.290;2023-07-28T09:49:34;26.80;72.60
24326;DHT22;12448;45.532;5.290;2023-07-28T09:52:05;26.70;72.80
24326;DHT22;12448;45.532;5.290;2023-07-28T09:54:34;26.80;73.00
24326;DHT22;12448;45.532;5.290;2023-07-28T09:57:02;26.60;72.70
24326;DHT22;12448;45.532;5.290;2023-07-28T09:59:32;27.00;72.30
24326;DHT22;12448;45.532;5.290;2023-07-28T10:02:02;27.00;71.80
24326;DHT22;12448;45.532;5.290;2023-07-28T10:04:29;27.00;70.50
24326;DHT22;12448;45.532;5.290;2023-07-28T10:06:56;27.00;70.60
24326;DHT22;12448;45.532;5.290;2023-07-28T10:09:26;26.90;70.20
24326;DHT22;12448;45.532;5.290;2023-07-28T10:11:52;27.00;70.20
24326;DHT22;12448;45.532;5.290;2023-07-28T10:14:28;26.90;69.70
24326;DHT22;12448;45.532;5.290;2023-07-28T10:16:57;26.90;70.30
24326;DHT22;12448;45.532;5.290;2023-07-28T10:19:27;26.90;69.70
24326;DHT22;12448;45.532;5.290;2023-07-28T10:22:07;26.90;70.30
24326;DHT22;12448;45.532;5.290;2023-07-28T10:24:52;26.90;69.70
24326;DHT22;12448;45.532;5.290;2023-07-28T10:27:34;26.90;69.50
24326;DHT22;12448;45.532;5.290;2023-07-28T10:30:07;27.00;69.70
24326;DHT22;12448;45.532;5.290;2023-07-28T10:32:45;27.10;69.70
24326;DHT22;12448;45.532;5.290;2023-07-28T10:37:44;27.30;68.80
24326;DHT22;12448;45.532;5.290;2023-07-28T10:40:22;27.50;67.30
24326;DHT22;12448;45.532;5.290;2023-07-28T10:42:48;27.50;67.10
24326;DHT22;12448;45.532;5.290;2023-07-28T10:45:15;27.50;66.50
24326;DHT22;12448;45.532;5.290;2023-07-28T10:47:41;27.40;65.70
24326;DHT22;12448;45.532;5.290;2023-07-28T10:50:10;27.40;66.10
24326;DHT22;12448;45.532;5.290;2023-07-28T10:52:40;27.40;65.90
24326;DHT22;12448;45.532;5.290;2023-07-28T10:57:44;27.40;66.20
24326;DHT22;12448;45.532;5.290;2023-07-28T11:00:11;27.40;65.80
24326;DHT22;12448;45.532;5.290;2023-07-28T11:02:49;27.50;65.60
24326;DHT22;12448;45.532;5.290;2023-07-28T11:05:35;27.60;63.40
24326;DHT22;12448;45.532;5.290;2023-07-28T11:08:02;27.70;62.60
24326;DHT22;12448;45.532;5.290;2023-07-28T11:10:28;27.70;64.00
24326;DHT22;12448;45.532;5.290;2023-07-28T11:13:00;27.70;63.60
24326;DHT22;12448;45.532;5.290;2023-07-28T11:15:26;27.70;64.00
24326;DHT22;12448;45.532;5.290;2023-07-28T11:17:52;27.70;64.50
24326;DHT22;12448;45.532;5.290;2023-07-28T11:20:27;27.60;63.30
24326;DHT22;12448;45.532;5.290;2023-07-28T11:23:01;27.60;63.80
24326;DHT22;12448;45.532;5.290;2023-07-28T11:25:29;27.60;63.10
24326;DHT22;12448;45.532;5.290;2023-07-28T11:27:56;27.80;63.40
24326;DHT22;12448;45.532;5.290;2023-07-28T11:30:23;27.90;63.70
24326;DHT22;12448;45.532;5.290;2023-07-28T11:32:50;28.00;64.30
24326;DHT22;12448;45.532;5.290;2023-07-28T11:35:19;28.10;63.70
24326;DHT22;12448;45.532;5.290;2023-07-28T11:37:52;28.20;63.00
24326;DHT22;12448;45.532;5.290;2023-07-28T11:40:20;28.30;61.20
24326;DHT22;12448;45.532;5.290;2023-07-28T11:42:56;28.30;61.40
24326;DHT22;12448;45.532;5.290;2023-07-28T11:45:22;28.40;61.80
24326;DHT22;12448;45.532;5.290;2023-07-28T11:48:00;28.50;61.90
24326;DHT22;12448;45.532;5.290;2023-07-28T11:50:27;28.60;58.90
24326;DHT22;12448;45.532;5.290;2023-07-28T11:52:54;28.60;59.10
24326;DHT22;12448;45.532;5.290;2023-07-28T11:55:20;28.60;58.50
24326;DHT22;12448;45.532;5.290;2023-07-28T11:57:47;28.80;58.10
24326;DHT22;12448;45.532;5.290;2023-07-28T12:00:13;28.80;57.90
24326;DHT22;12448;45.532;5.290;2023-07-28T12:02:42;28.90;57.60
24326;DHT22;12448;45.532;5.290;2023-07-28T12:05:13;29.00;55.50
24326;DHT22;12448;45.532;5.290;2023-07-28T12:07:39;29.00;55.50
24326;DHT22;12448;45.532;5.290;2023-07-28T12:10:06;29.00;53.00
24326;DHT22;12448;45.532;5.290;2023-07-28T12:12:46;29.00;54.30
24326;DHT22;12448;45.532;5.290;2023-07-28T12:15:26;29.20;54.70
24326;DHT22;12448;45.532;5.290;2023-07-28T12:18:07;29.20;54.90
24326;DHT22;12448;45.532;5.290;2023-07-28T12:20:38;29.30;55.20
24326;DHT22;12448;45.532;5.290;2023-07-28T12:23:05;29.30;55.10
24326;DHT22;12448;45.532;5.290;2023-07-28T12:25:31;29.40;53.80
24326;DHT22;12448;45.532;5.290;2023-07-28T12:27:57;29.50;54.60
24326;DHT22;12448;45.532;5.290;2023-07-28T12:30:23;29.60;54.90
24326;DHT22;12448;45.532;5.290;2023-07-28T12:32:48;29.60;54.40
24326;DHT22;12448;45.532;5.290;2023-07-28T12:35:14;29.70;53.90
24326;DHT22;12448;45.532;5.290;2023-07-28T12:37:40;29.80;54.20
24326;DHT22;12448;45.532;5.290;2023-07-28T12:40:07;29.90;54.80
24326;DHT22;12448;45.532;5.290;2023-07-28T12:42:33;30.00;53.90
24326;DHT22;12448;45.532;5.290;2023-07-28T12:44:59;29.90;51.10
24326;DHT22;12448;45.532;5.290;2023-07-28T12:47:25;29.90;52.90
24326;DHT22;12448;45.532;5.290;2023-07-28T12:49:50;29.90;53.50
24326;DHT22;12448;45.532;5.290;2023-07-28T12:52:16;30.00;53.70
24326;DHT22;12448;45.532;5.290;2023-07-28T12:54:41;30.10;53.80
24326;DHT22;12448;45.532;5.290;2023-07-28T12:57:08;30.20;53.40
24326;DHT22;12448;45.532;5.290;2023-07-28T12:59:36;30.30;52.60
24326;DHT22;12448;45.532;5.290;2023-07-28T13:02:02;30.20;52.00
24326;DHT22;12448;45.532;5.290;2023-07-28T13:04:27;30.10;51.80
24326;DHT22;12448;45.532;5.290;2023-07-28T13:06:53;30.00;51.80
24326;DHT22;12448;45.532;5.290;2023-07-28T13:09:19;29.90;52.20
24326;DHT22;12448;45.532;5.290;2023-07-28T13:11:45;29.80;52.00
24326;DHT22;12448;45.532;5.290;2023-07-28T13:14:10;29.90;52.10
24326;DHT22;12448;45.532;5.290;2023-07-28T13:16:36;29.90;52.30
24326;DHT22;12448;45.532;5.290;2023-07-28T13:19:03;30.00;52.70
24326;DHT22;12448;45.532;5.290;2023-07-28T13:21:29;30.20;52.60
24326;DHT22;12448;45.532;5.290;2023-07-28T13:23:55;30.40;52.60
24326;DHT22;12448;45.532;5.290;2023-07-28T13:26:20;30.40;52.00
24326;DHT22;12448;45.532;5.290;2023-07-28T13:28:46;30.50;51.80
24326;DHT22;12448;45.532;5.290;2023-07-28T13:31:14;30.50;51.90
24326;DHT22;12448;45.532;5.290;2023-07-28T13:33:40;30.60;51.50
24326;DHT22;12448;45.532;5.290;2023-07-28T13:36:05;30.70;51.80
24326;DHT22;12448;45.532;5.290;2023-07-28T13:38:33;30.70;51.60
24326;DHT22;12448;45.532;5.290;2023-07-28T13:40:59;30.80;52.00
24326;DHT22;12448;45.532;5.290;2023-07-28T13:43:24;30.80;52.20
24326;DHT22;12448;45.532;5.290;2023-07-28T13:45:50;30.90;52.20
24326;DHT22;12448;45.532;5.290;2023-07-28T13:48:16;31.00;52.30
24326;DHT22;12448;45.532;5.290;2023-07-28T13:50:41;30.90;52.30
24326;DHT22;12448;45.532;5.290;2023-07-28T13:53:07;30.90;52.20
24326;DHT22;12448;45.532;5.290;2023-07-28T13:55:32;30.80;52.10
24326;DHT22;12448;45.532;5.290;2023-07-28T13:57:58;30.80;51.80
24326;DHT22;12448;45.532;5.290;2023-07-28T14:00:23;30.70;51.90
24326;DHT22;12448;45.532;5.290;2023-07-28T14:02:49;30.70;52.20
24326;DHT22;12448;45.532;5.290;2023-07-28T14:05:15;30.80;52.30
24326;DHT22;12448;45.532;5.290;2023-07-28T14:07:40;30.80;52.70
24326;DHT22;12448;45.532;5.290;2023-07-28T14:10:06;30.80;51.40
24326;DHT22;12448;45.532;5.290;2023-07-28T14:12:31;30.80;51.10
24326;DHT22;12448;45.532;5.290;2023-07-28T14:14:57;30.80;51.20
24326;DHT22;12448;45.532;5.290;2023-07-28T14:17:22;30.70;51.30
24326;DHT22;12448;45.532;5.290;2023-07-28T14:19:48;30.80;51.10
24326;DHT22;12448;45.532;5.290;2023-07-28T14:22:14;30.80;51.50
24326;DHT22;12448;45.532;5.290;2023-07-28T14:24:39;30.80;51.50
24326;DHT22;12448;45.532;5.290;2023-07-28T14:27:05;30.80;52.00
24326;DHT22;12448;45.532;5.290;2023-07-28T14:29:31;30.90;52.10
24326;DHT22;12448;45.532;5.290;2023-07-28T14:31:57;31.00;52.10
24326;DHT22;12448;45.532;5.290;2023-07-28T14:34:22;31.00;51.80
24326;DHT22;12448;45.532;5.290;2023-07-28T14:36:48;31.10;52.20
24326;DHT22;12448;45.532;5.290;2023-07-28T14:39:13;31.10;52.20
24326;DHT22;12448;45.532;5.290;2023-07-28T14:41:39;31.10;52.50
24326;DHT22;12448;45.532;5.290;2023-07-28T14:44:04;31.00;52.10
24326;DHT22;12448;45.532;5.290;2023-07-28T14:46:30;30.90;52.00
24326;DHT22;12448;45.532;5.290;2023-07-28T14:48:56;30.90;51.90
24326;DHT22;12448;45.532;5.290;2023-07-28T14:51:22;30.70;51.90
24326;DHT22;12448;45.532;5.290;2023-07-28T14:53:48;30.70;52.30
24326;DHT22;12448;45.532;5.290;2023-07-28T14:56:15;30.70;52.10
24326;DHT22;12448;45.532;5.290;2023-07-28T14:58:41;30.70;51.80
24326;DHT22;12448;45.532;5.290;2023-07-28T15:01:07;30.70;52.00
24326;DHT22;12448;45.532;5.290;2023-07-28T15:03:33;30.70;51.70
24326;DHT22;12448;45.532;5.290;2023-07-28T15:06:00;30.70;51.70
24326;DHT22;12448;45.532;5.290;2023-07-28T15:08:26;30.70;51.50
24326;DHT22;12448;45.532;5.290;2023-07-28T15:10:52;30.80;51.90
24326;DHT22;12448;45.532;5.290;2023-07-28T15:13:18;30.80;52.30
24326;DHT22;12448;45.532;5.290;2023-07-28T15:15:44;30.80;51.70
24326;DHT22;12448;45.532;5.290;2023-07-28T15:18:09;30.90;51.90
24326;DHT22;12448;45.532;5.290;2023-07-28T15:20:36;30.90;51.10
24326;DHT22;12448;45.532;5.290;2023-07-28T15:23:02;31.00;50.80
24326;DHT22;12448;45.532;5.290;2023-07-28T15:25:27;30.90;50.10
24326;DHT22;12448;45.532;5.290;2023-07-28T15:27:53;30.90;50.80
24326;DHT22;12448;45.532;5.290;2023-07-28T15:30:19;31.00;51.40
24326;DHT22;12448;45.532;5.290;2023-07-28T15:32:45;31.00;51.70
24326;DHT22;12448;45.532;5.290;2023-07-28T15:35:10;31.10;51.30
24326;DHT22;12448;45.532;5.290;2023-07-28T15:37:36;31.10;50.90